Marysville, MT (59640)

8:18 AM MDT on September 05, 2015 (GMT -0600)
Solitude Rd | | Change Station
CLOSE
Current Station
Personal Weather Station
Location: Helena, MT
Elevation: 5180 ft
Nearby Weather Stations

Elev 5180 ft 46.69 °N, 112.23 °W | Updated 8 minutes ago

Rain
Rain
42.4 °F
Feels Like 42 °F
N
0.0
Wind Variable Wind from WNW

Today
High -- | Low -- °F
--% Chance of Precip.
Yesterday
High -- | Low -- °F
Precip. -- in
6:53 AM 8:01 PM
Waning Gibbous, 48% visible
Pressure 29.91 in
Visibility 1.8 miles
Clouds Scattered Clouds 3000 ft
Mostly Cloudy 4300 ft
Overcast 5000 ft
Windchill 42 °F
Dew Point 42 °F
Humidity 99%
Rainfall 0.47 in
Snow Depth Not available.
UV 0 out of 12
Pollen 2.60 out of 12
Air Quality Not available.
Flu Activity Not available.
SPECI KHLN 051413Z 26005KT 1 3/4SM RA BR SCT030 BKN043 OVC050 09/07 A2991 RMK AO2 RAB1354 P0005 T00890072
Pressure 29.91 in
Visibility 1.8 miles
Clouds Scattered Clouds 3000 ft
Mostly Cloudy 4300 ft
Overcast 5000 ft
Windchill 42 °F
Dew Point 42 °F
Humidity 99%
Rainfall 0.47 in
Snow Depth Not available.
UV 0 out of 12
Pollen 2.60 out of 12
Air Quality Not available.
Flu Activity Not available.
SPECI KHLN 051413Z 26005KT 1 3/4SM RA BR SCT030 BKN043 OVC050 09/07 A2991 RMK AO2 RAB1354 P0005 T00890072

10-Day Weather Forecast

×

Almanac

Astronomy

Sep. 05, 2015 Rise Set
Actual Time
Civil Twilight
Nautical Twilight
Astronomical Twilight
Moon
Length of Visible Light
Length of Day
Tomorrow will be .
, % of the Moon is Illuminated

Today's Extremes

State Highs State Lows

Community

WunderPhotos

Upload Photos

1,852,472 photos uploaded!

WunderBlogs® & News

Nearby

Air Quality

  Air Quality AQ Index Pollutant
Not available.

Snow Depth

Station Depth Elevation

Earthquake Activity

City Distance Mag. Time & Date
Minimum magnitude displayed is 2.5.

Coastal Water Temperatures

Place Temperature

Stations

Nearby Weather Stations

Station Location Temp. Windchill Dew Point Humidity Wind Precip. Elev Updated Type